createdAt,value
2022-11-28T06:20:07.816Z,14.70
2022-11-28T06:20:38.596Z,15.30
2022-11-28T06:21:09.365Z,15.00
2022-11-28T06:21:40.115Z,16.10
2022-11-28T06:22:10.874Z,18.80
2022-11-28T06:22:41.646Z,15.00
2022-11-28T06:23:12.386Z,16.30
2022-11-28T06:23:43.146Z,14.80
2022-11-28T06:24:14.027Z,17.70
2022-11-28T06:24:44.795Z,15.80
2022-11-28T06:25:15.572Z,13.30
2022-11-28T06:25:46.344Z,16.60
2022-11-28T06:26:17.086Z,16.10
2022-11-28T06:26:47.844Z,15.50
2022-11-28T06:27:18.589Z,18.20
2022-11-28T06:27:49.339Z,15.60
2022-11-28T06:28:20.117Z,16.50
2022-11-28T06:28:50.877Z,16.00
2022-11-28T06:29:21.636Z,15.90
2022-11-28T06:29:52.413Z,16.50
2022-11-28T06:30:23.165Z,17.40
2022-11-28T06:30:53.926Z,14.80
2022-11-28T06:31:24.774Z,12.80
2022-11-28T06:31:55.643Z,17.10
2022-11-28T06:32:26.411Z,17.20
2022-11-28T06:32:57.179Z,16.80
2022-11-28T06:33:27.945Z,17.40
2022-11-28T06:33:58.705Z,14.60
2022-11-28T06:34:29.454Z,13.70
2022-11-28T06:35:00.229Z,17.90
2022-11-28T06:35:30.976Z,15.70
2022-11-28T06:36:01.727Z,15.70
2022-11-28T06:36:32.486Z,12.90
2022-11-28T06:37:03.245Z,19.50
2022-11-28T06:37:33.996Z,13.70
2022-11-28T06:38:04.759Z,17.30
2022-11-28T06:38:35.508Z,18.00
2022-11-28T06:39:06.257Z,16.60
2022-11-28T06:39:37.009Z,15.40
2022-11-28T06:40:07.790Z,15.20
2022-11-28T06:40:38.531Z,15.70
2022-11-28T06:41:09.289Z,15.00
2022-11-28T06:41:40.048Z,16.50
2022-11-28T06:42:10.820Z,14.30
2022-11-28T06:42:41.564Z,14.60
2022-11-28T06:43:12.318Z,14.70
2022-11-28T06:43:43.066Z,18.00
2022-11-28T06:44:13.820Z,15.90
2022-11-28T06:44:44.597Z,16.40
2022-11-28T06:45:15.366Z,18.40
2022-11-28T06:45:46.162Z,17.40
2022-11-28T06:46:17.159Z,15.20
2022-11-28T06:46:47.998Z,14.80
2022-11-28T06:47:18.740Z,15.10
2022-11-28T06:47:49.493Z,14.80
2022-11-28T06:48:20.249Z,15.80
2022-11-28T06:48:50.990Z,18.50
2022-11-28T06:49:21.749Z,15.30
2022-11-28T06:50:02.970Z,14.40
2022-11-28T06:50:24.769Z,16.40
2022-11-28T06:50:55.511Z,15.40
2022-11-28T06:51:26.270Z,17.60
2022-11-28T06:51:57.028Z,17.20
2022-11-28T06:52:27.789Z,16.20
2022-11-28T06:52:58.531Z,17.10
2022-11-28T06:53:31.559Z,17.90
2022-11-28T06:53:59.501Z,17.70
2022-11-28T06:54:30.254Z,15.30
2022-11-28T06:55:00.998Z,15.50
2022-11-28T06:55:31.762Z,15.00
2022-11-28T06:56:02.521Z,18.60
2022-11-28T06:56:33.271Z,18.80
2022-11-28T06:57:04.029Z,16.90
2022-11-28T06:57:34.781Z,15.60
2022-11-28T06:58:05.540Z,16.80
2022-11-28T06:58:36.293Z,18.10
2022-11-28T06:59:07.039Z,17.80
2022-11-28T06:59:37.793Z,15.60
2022-11-28T07:00:08.567Z,18.70
2022-11-28T07:00:39.332Z,17.20
2022-11-28T07:01:10.226Z,15.70
2022-11-28T07:01:41.072Z,16.10
2022-11-28T07:02:11.929Z,16.40
2022-11-28T07:02:42.789Z,17.20
2022-11-28T07:03:13.583Z,18.80
2022-11-28T07:03:44.335Z,18.70
2022-11-28T07:04:15.081Z,17.20
2022-11-28T07:04:45.842Z,16.10
2022-11-28T07:05:16.623Z,16.40
2022-11-28T07:05:47.391Z,17.00
2022-11-28T07:06:18.141Z,20.10
2022-11-28T07:06:48.893Z,21.50
2022-11-28T07:07:19.723Z,15.40
2022-11-28T07:07:54.510Z,16.70
2022-11-28T07:08:22.419Z,18.80
2022-11-28T07:08:53.173Z,15.20
2022-11-28T07:09:23.924Z,17.60
2022-11-28T07:09:54.685Z,17.10
2022-11-28T07:10:25.439Z,18.70
2022-11-28T07:10:56.210Z,19.30
2022-11-28T07:11:26.945Z,18.40
2022-11-28T07:11:57.713Z,19.00
2022-11-28T07:12:28.475Z,20.60
2022-11-28T07:13:02.496Z,17.70
2022-11-28T07:13:31.867Z,17.20
2022-11-28T07:14:02.647Z,18.50
2022-11-28T07:14:33.410Z,17.40
2022-11-28T07:15:04.162Z,19.10
2022-11-28T07:15:34.933Z,15.10
2022-11-28T07:16:05.675Z,18.30
2022-11-28T07:16:36.438Z,16.00
2022-11-28T07:17:07.263Z,15.90
2022-11-28T07:17:38.044Z,18.20
2022-11-28T07:18:08.796Z,17.90
2022-11-28T07:18:39.543Z,17.80
2022-11-28T07:19:10.306Z,17.70
2022-11-28T07:19:41.443Z,18.60
2022-11-28T07:20:12.423Z,18.90
2022-11-28T07:20:43.193Z,17.10
2022-11-28T07:21:13.942Z,20.20
2022-11-28T07:21:44.686Z,20.40
2022-11-28T07:22:15.426Z,20.00
2022-11-28T07:22:46.197Z,15.20
2022-11-28T07:23:16.946Z,20.80
2022-11-28T07:23:47.694Z,21.10
2022-11-28T07:24:18.447Z,20.50
2022-11-28T07:24:49.224Z,20.70
2022-11-28T07:25:19.988Z,22.20
2022-11-28T07:25:50.742Z,16.70
2022-11-28T07:26:21.500Z,17.40
2022-11-28T07:26:52.236Z,20.00
2022-11-28T07:27:22.986Z,18.60
2022-11-28T07:27:53.734Z,18.70
2022-11-28T07:28:24.486Z,15.10
2022-11-28T07:28:55.237Z,16.80
2022-11-28T07:29:25.997Z,20.00
2022-11-28T07:29:56.747Z,18.40
2022-11-28T07:30:27.521Z,19.10
2022-11-28T07:30:58.276Z,18.90
2022-11-28T07:31:29.051Z,20.20
2022-11-28T07:31:59.877Z,16.80
2022-11-28T07:32:30.656Z,22.50
2022-11-28T07:33:01.415Z,17.20
2022-11-28T07:33:32.282Z,20.50
2022-11-28T07:34:03.028Z,19.20
2022-11-28T07:34:33.798Z,15.90
2022-11-28T07:35:04.555Z,17.20
2022-11-28T07:35:35.325Z,16.50
2022-11-28T07:36:06.069Z,20.70
2022-11-28T07:36:36.834Z,21.90
2022-11-28T07:37:07.582Z,21.10
2022-11-28T07:37:38.340Z,17.40
2022-11-28T07:38:09.088Z,19.10
2022-11-28T07:38:39.844Z,19.80
2022-11-28T07:39:10.607Z,19.80
2022-11-28T07:39:41.712Z,22.20
2022-11-28T07:40:12.664Z,21.00
2022-11-28T07:40:43.431Z,17.90
2022-11-28T07:41:14.181Z,22.20
2022-11-28T07:41:44.929Z,17.90
2022-11-28T07:42:15.704Z,18.60
2022-11-28T07:42:46.460Z,16.70
2022-11-28T07:43:17.199Z,20.10
2022-11-28T07:43:47.960Z,20.30
2022-11-28T07:44:18.731Z,20.50
2022-11-28T07:44:49.502Z,18.40
2022-11-28T07:45:20.268Z,17.50
2022-11-28T07:46:00.608Z,19.80
2022-11-28T07:46:23.686Z,19.30
2022-11-28T07:46:54.532Z,18.10
2022-11-28T07:47:25.293Z,20.30
2022-11-28T07:47:56.059Z,17.70
2022-11-28T07:48:26.810Z,17.20
2022-11-28T07:48:57.562Z,19.40
2022-11-28T07:49:28.318Z,16.20
2022-11-28T07:49:59.071Z,17.50
2022-11-28T07:50:29.815Z,18.00
2022-11-28T07:51:00.590Z,18.60
2022-11-28T07:51:31.344Z,20.40
2022-11-28T07:52:02.101Z,20.30
2022-11-28T07:52:32.841Z,18.00
2022-11-28T07:53:07.184Z,19.80
2022-11-28T07:53:35.162Z,19.30
2022-11-28T07:54:05.922Z,18.10
2022-11-28T07:54:36.681Z,19.50
2022-11-28T07:55:07.432Z,18.20
2022-11-28T07:55:38.189Z,20.90
2022-11-28T07:56:08.972Z,20.30
2022-11-28T07:57:10.879Z,21.10
2022-11-28T07:57:13.407Z,17.70
2022-11-28T07:57:44.373Z,18.90
2022-11-28T07:58:15.122Z,18.70
2022-11-28T07:58:45.872Z,20.70
2022-11-28T07:59:16.621Z,18.70
2022-11-28T07:59:47.376Z,19.70
2022-11-28T08:00:18.130Z,21.00
2022-11-28T08:00:48.882Z,18.80
2022-11-28T08:01:19.672Z,19.60
2022-11-28T08:01:50.477Z,19.30
2022-11-28T08:02:21.355Z,18.40
2022-11-28T08:02:52.122Z,18.30
2022-11-28T08:03:22.863Z,19.20
2022-11-28T08:03:53.613Z,21.40
2022-11-28T08:04:24.411Z,21.50
2022-11-28T08:04:55.564Z,24.40
2022-11-28T08:05:26.393Z,19.80
2022-11-28T08:06:01.568Z,18.40
2022-11-28T08:06:29.766Z,17.80
2022-11-28T08:07:00.524Z,20.40
2022-11-28T08:07:31.340Z,21.30
2022-11-28T08:08:02.238Z,22.10
2022-11-28T08:08:33.079Z,19.90
2022-11-28T08:09:03.821Z,17.80
2022-11-28T08:09:34.575Z,19.60
2022-11-28T08:10:05.341Z,21.90
2022-11-28T08:10:36.094Z,17.70
2022-11-28T08:11:06.863Z,19.40
2022-11-28T08:11:37.614Z,20.30
2022-11-28T08:12:08.371Z,19.30
2022-11-28T08:12:39.114Z,17.60
2022-11-28T08:13:09.873Z,20.10
2022-11-28T08:13:40.648Z,19.70
2022-11-28T08:14:11.410Z,20.10
2022-11-28T08:14:42.675Z,20.80
2022-11-28T08:15:13.640Z,19.60
2022-11-28T08:15:44.376Z,19.20
2022-11-28T08:16:15.249Z,17.70
2022-11-28T08:16:46.027Z,19.20
2022-11-28T08:17:16.861Z,19.20
2022-11-28T08:17:47.602Z,21.90
2022-11-28T08:18:18.356Z,20.00
2022-11-28T08:18:49.105Z,19.90
2022-11-28T08:19:23.095Z,18.80
2022-11-28T08:19:52.458Z,19.70
2022-11-28T08:20:23.212Z,20.50
2022-11-28T08:20:54.565Z,17.80
2022-11-28T08:21:25.335Z,17.30
2022-11-28T08:21:56.088Z,20.60
2022-11-28T08:22:26.866Z,20.50
2022-11-28T08:22:57.627Z,20.40
2022-11-28T08:23:28.395Z,18.00
2022-11-28T08:23:59.138Z,21.00
2022-11-28T08:24:29.887Z,19.40
2022-11-28T08:25:00.647Z,20.00
2022-11-28T08:25:31.409Z,18.60
2022-11-28T08:26:02.157Z,22.10
2022-11-28T08:26:32.927Z,18.50
2022-11-28T08:27:03.693Z,21.90
2022-11-28T08:27:34.449Z,18.70
2022-11-28T08:28:05.209Z,19.50
2022-11-28T08:28:35.969Z,24.70
2022-11-28T08:29:06.719Z,21.90
2022-11-28T08:29:37.498Z,18.70
2022-11-28T08:30:15.364Z,19.70
2022-11-28T08:30:40.161Z,17.50
2022-11-28T08:31:11.362Z,18.20
2022-11-28T08:31:42.179Z,19.50
2022-11-28T08:32:13.022Z,18.70
2022-11-28T08:32:43.822Z,22.40
2022-11-28T08:33:14.817Z,19.30
2022-11-28T08:33:45.599Z,20.70
2022-11-28T08:34:16.386Z,20.00
2022-11-28T08:34:47.150Z,18.20
2022-11-28T08:35:17.912Z,17.00
2022-11-28T08:35:48.709Z,21.00
2022-11-28T08:36:19.471Z,19.90
2022-11-28T08:36:50.269Z,19.30
2022-11-28T08:37:21.028Z,19.70
2022-11-28T08:37:51.806Z,20.50
2022-11-28T08:38:22.547Z,21.50
2022-11-28T08:39:09.441Z,22.50
2022-11-28T08:39:26.003Z,19.50
2022-11-28T08:39:56.744Z,21.80
2022-11-28T08:40:27.524Z,23.30
2022-11-28T08:40:58.253Z,21.30
2022-11-28T08:41:29.047Z,18.20
2022-11-28T08:41:59.880Z,18.70
2022-11-28T08:42:30.870Z,19.50
2022-11-28T08:43:01.644Z,17.40
2022-11-28T08:43:32.409Z,19.60
2022-11-28T08:44:03.185Z,19.70
2022-11-28T08:44:33.947Z,20.50
2022-11-28T08:45:04.743Z,17.30
2022-11-28T08:45:35.615Z,21.10
2022-11-28T08:46:06.510Z,17.40
2022-11-28T08:46:37.384Z,19.40
2022-11-28T08:47:08.227Z,20.80
2022-11-28T08:47:39.196Z,20.60
2022-11-28T08:48:10.166Z,22.20
2022-11-28T08:48:41.144Z,20.30
2022-11-28T08:49:12.041Z,20.70
2022-11-28T08:49:43.190Z,18.70
2022-11-28T08:50:14.171Z,20.90
2022-11-28T08:50:47.947Z,21.70
2022-11-28T08:51:16.114Z,20.10
2022-11-28T08:51:47.120Z,17.40
2022-11-28T08:52:18.065Z,18.50
2022-11-28T08:52:48.904Z,23.90
2022-11-28T08:53:19.744Z,20.40
2022-11-28T08:53:54.900Z,24.50
2022-11-28T08:54:23.214Z,19.70
2022-11-28T08:54:54.017Z,20.50
2022-11-28T08:55:31.964Z,21.10
2022-11-28T08:55:57.497Z,20.80
2022-11-28T08:56:28.266Z,22.70
2022-11-28T08:56:59.022Z,20.30
2022-11-28T08:57:29.756Z,24.50
2022-11-28T08:58:15.426Z,29.10
2022-11-28T08:58:45.699Z,23.30
2022-11-28T08:59:01.245Z,22.30
2022-11-28T08:59:31.987Z,22.70
2022-11-28T09:00:02.726Z,19.50
2022-11-28T09:00:33.468Z,23.90
2022-11-28T09:01:04.225Z,32.30
2022-11-28T09:01:35.013Z,30.20
2022-11-28T09:02:05.766Z,27.40
2022-11-28T09:02:36.506Z,21.90
2022-11-28T09:03:07.254Z,20.90
2022-11-28T09:03:38.155Z,22.10
2022-11-28T09:04:09.040Z,23.00
2022-11-28T09:04:39.807Z,21.40
2022-11-28T09:05:10.547Z,23.70
2022-11-28T09:05:41.287Z,21.90
2022-11-28T09:06:12.047Z,24.00
2022-11-28T09:06:42.806Z,21.90
2022-11-28T09:07:13.622Z,24.00
2022-11-28T09:07:44.386Z,20.80
2022-11-28T09:08:15.124Z,22.30
2022-11-28T09:08:45.866Z,18.80
2022-11-28T09:09:16.607Z,20.30
2022-11-28T09:09:47.716Z,19.10
2022-11-28T09:10:18.794Z,19.10
2022-11-28T09:10:49.527Z,18.50
2022-11-28T09:11:20.294Z,21.20
2022-11-28T09:11:51.046Z,22.60
2022-11-28T09:12:21.780Z,22.80
2022-11-28T09:12:52.519Z,26.00
2022-11-28T09:13:23.266Z,17.90
2022-11-28T09:13:54.005Z,18.80
2022-11-28T09:14:24.747Z,18.70
2022-11-28T09:14:55.488Z,20.60
2022-11-28T09:15:26.221Z,20.00
2022-11-28T09:15:56.968Z,22.10
2022-11-28T09:16:27.791Z,24.30
2022-11-28T09:16:58.555Z,23.50
2022-11-28T09:17:29.307Z,20.80
2022-11-28T09:18:00.047Z,19.40
2022-11-28T09:18:30.783Z,18.60
2022-11-28T09:19:01.523Z,20.00
2022-11-28T09:19:32.248Z,21.60
2022-11-28T09:20:02.998Z,18.40
2022-11-28T09:20:34.029Z,18.80
2022-11-28T09:21:06.071Z,20.90
2022-11-28T09:21:37.302Z,20.20
2022-11-28T09:22:10.815Z,20.70
2022-11-28T09:22:39.786Z,17.20
2022-11-28T09:23:10.881Z,18.50
2022-11-28T09:23:41.932Z,20.60
2022-11-28T09:24:12.778Z,17.50
2022-11-28T09:24:43.595Z,18.50
2022-11-28T09:25:14.442Z,20.00
2022-11-28T09:25:45.232Z,20.20
2022-11-28T09:26:16.045Z,24.70
2022-11-28T09:26:46.833Z,18.60
2022-11-28T09:27:17.727Z,19.10
2022-11-28T09:27:48.572Z,20.40
2022-11-28T09:28:19.393Z,20.40
2022-11-28T09:28:50.162Z,20.00
2022-11-28T09:29:20.946Z,17.10
2022-11-28T09:29:51.711Z,20.40
2022-11-28T09:30:22.576Z,20.10
2022-11-28T09:30:53.381Z,20.90
2022-11-28T09:31:24.262Z,18.70
2022-11-28T09:31:55.112Z,17.30
2022-11-28T09:32:25.881Z,19.80
2022-11-28T09:32:56.663Z,17.40
2022-11-28T09:33:27.450Z,18.40
2022-11-28T09:33:58.252Z,19.00
2022-11-28T09:34:29.207Z,18.00
2022-11-28T09:35:00.027Z,17.50
2022-11-28T09:35:30.793Z,18.70
2022-11-28T09:36:01.622Z,19.30
2022-11-28T09:36:32.544Z,19.50
2022-11-28T09:37:04.962Z,21.60
2022-11-28T09:37:36.001Z,27.40
2022-11-28T09:38:06.833Z,20.20
2022-11-28T09:38:37.685Z,21.70
2022-11-28T09:39:08.443Z,28.90
2022-11-28T09:39:50.587Z,28.50
2022-11-28T09:40:13.436Z,20.30
2022-11-28T09:40:44.699Z,21.40
2022-11-28T09:41:15.481Z,20.90
2022-11-28T09:41:46.311Z,19.80
2022-11-28T09:42:17.106Z,19.10
2022-11-28T09:42:47.947Z,21.60
2022-11-28T09:43:18.743Z,19.10
2022-11-28T09:43:54.607Z,20.50
2022-11-28T09:44:22.165Z,22.40
2022-11-28T09:44:52.987Z,20.50
2022-11-28T09:45:23.849Z,16.00
2022-11-28T09:45:54.702Z,16.90
2022-11-28T09:46:25.683Z,17.40
2022-11-28T09:46:56.825Z,17.70
2022-11-28T09:47:27.724Z,19.10
2022-11-28T09:47:58.721Z,17.10
2022-11-28T09:48:29.881Z,17.40
2022-11-28T09:49:00.940Z,18.70
2022-11-28T16:55:19.952Z,45.90
2022-11-28T16:55:50.853Z,54.50
2022-11-28T16:56:21.789Z,59.20
2022-11-28T16:56:52.713Z,56.00
2022-11-28T16:57:26.549Z,57.20
2022-11-28T16:57:56.686Z,62.50
2022-11-28T16:58:27.861Z,63.30
2022-11-28T16:58:58.720Z,60.10
2022-11-28T16:59:29.586Z,57.70
2022-11-28T17:00:00.397Z,55.00
2022-11-28T17:00:31.276Z,60.80
2022-11-28T17:01:02.356Z,57.70
2022-11-28T17:01:33.280Z,55.60
2022-11-28T17:02:04.133Z,59.00
2022-11-28T17:02:35.524Z,58.20
2022-11-28T17:03:10.269Z,64.70
2022-11-28T17:03:39.348Z,60.50
2022-11-28T17:04:10.286Z,60.50
2022-11-28T17:04:41.214Z,59.80
2022-11-28T17:05:12.184Z,56.60
2022-11-28T17:05:43.283Z,57.50
2022-11-28T17:06:14.578Z,59.10
2022-11-28T17:06:45.811Z,51.90
2022-11-28T17:07:17.292Z,55.70
2022-11-28T17:07:48.283Z,54.20
2022-11-28T17:08:19.233Z,59.10
2022-11-28T17:08:50.331Z,56.70
2022-11-28T17:16:33.759Z,62.90
2022-11-28T17:17:04.706Z,60.60
2022-11-28T17:17:35.516Z,63.30
2022-11-28T17:18:06.425Z,65.00
2022-11-28T17:18:37.597Z,60.10
2022-11-28T17:19:08.908Z,60.40
2022-11-28T17:19:39.825Z,56.40
2022-11-28T17:20:11.008Z,58.90
2022-11-28T17:20:42.040Z,60.00
2022-11-28T17:21:13.132Z,56.90
2022-11-28T17:21:44.007Z,55.00
2022-11-28T17:22:14.975Z,52.50
2022-11-28T17:22:45.996Z,58.50
2022-11-28T17:23:16.946Z,52.90
2022-11-28T17:23:47.973Z,57.70
2022-11-28T17:24:18.985Z,60.90
2022-11-28T17:24:49.960Z,59.60
2022-11-28T17:25:20.871Z,59.80
2022-11-28T17:25:51.860Z,56.50
2022-11-28T17:26:22.821Z,59.70
2022-11-28T17:26:53.695Z,58.60
2022-11-28T17:27:24.962Z,57.60
2022-11-28T17:27:56.445Z,63.00
2022-11-28T17:28:29.208Z,56.50
2022-11-28T17:29:00.397Z,61.20
2022-11-28T17:29:31.333Z,59.80
2022-11-28T17:30:02.636Z,54.30
2022-11-28T17:30:33.588Z,55.80
2022-11-28T17:31:04.541Z,58.10
2022-11-28T17:31:35.827Z,56.80
2022-11-28T17:32:06.728Z,65.00
2022-11-28T17:32:37.775Z,64.50
2022-11-28T17:33:08.862Z,60.90
2022-11-28T17:33:44.415Z,60.90
2022-11-28T17:34:12.782Z,56.90
2022-11-28T17:34:43.928Z,62.30
2022-11-28T17:35:15.140Z,60.50
2022-11-28T17:35:46.236Z,58.90
2022-11-28T17:36:17.168Z,61.40
2022-11-28T17:36:48.285Z,68.50
2022-11-28T17:37:19.355Z,67.80
2022-11-28T17:37:50.622Z,58.70
2022-11-28T17:38:21.693Z,57.10
2022-11-28T17:38:53.683Z,55.00
2022-11-28T17:39:24.921Z,61.50
2022-11-28T17:39:55.932Z,56.80
2022-11-28T17:40:27.042Z,66.80
2022-11-28T17:40:57.989Z,57.50
2022-11-28T17:41:29.068Z,62.40
2022-11-28T17:42:00.120Z,62.80
2022-11-28T17:42:31.362Z,61.10
2022-11-28T17:43:02.260Z,46.80
2022-11-28T17:43:38.721Z,55.20
2022-11-28T17:44:06.010Z,55.30
2022-11-28T17:44:36.855Z,57.50
2022-11-28T17:45:07.800Z,60.70
2022-11-28T17:45:38.736Z,57.60
2022-11-28T17:46:09.875Z,61.00
2022-11-28T17:46:40.831Z,63.30
2022-11-28T17:47:11.915Z,59.30
2022-11-28T17:47:42.824Z,54.50
2022-11-28T17:48:13.753Z,60.30
2022-11-28T17:48:44.819Z,57.70
2022-11-28T17:49:15.743Z,65.00
2022-11-28T17:49:46.776Z,59.80
2022-11-28T17:50:17.709Z,63.60
2022-11-28T17:50:48.752Z,57.30
2022-11-28T17:51:19.633Z,57.50
2022-11-28T17:51:50.945Z,55.20
2022-11-28T17:52:21.836Z,50.60
2022-11-28T17:52:53.067Z,55.90
2022-11-28T17:53:24.101Z,55.00
2022-11-28T17:53:55.556Z,53.40
2022-11-28T17:54:26.434Z,54.10
2022-11-28T17:55:00.946Z,52.60
2022-11-28T17:55:30.601Z,54.50
2022-11-28T17:56:01.458Z,53.20
2022-11-28T17:56:32.407Z,57.20
2022-11-28T17:57:03.372Z,64.20
2022-11-28T17:57:34.392Z,55.50
2022-11-28T17:58:05.389Z,54.70
2022-11-28T17:58:36.401Z,53.30
2022-11-28T17:59:07.437Z,60.50
2022-11-28T17:59:38.507Z,56.30
2022-11-28T18:00:10.019Z,54.30
2022-11-28T18:00:41.015Z,54.80
2022-11-28T18:01:12.033Z,57.60
2022-11-28T18:01:43.007Z,56.30
2022-11-28T18:02:13.899Z,53.50
2022-11-28T18:02:44.757Z,61.70
2022-11-28T18:03:15.741Z,56.50
2022-11-28T18:03:46.531Z,50.60
2022-11-28T18:04:17.737Z,61.10
2022-11-28T18:04:48.654Z,65.40
2022-11-28T18:05:19.623Z,61.60
2022-11-28T18:05:50.600Z,61.90
2022-11-28T18:06:21.835Z,58.60
2022-11-28T18:06:52.664Z,61.30
2022-11-28T18:07:23.696Z,57.90
2022-11-28T18:07:54.605Z,61.10
2022-11-28T18:08:25.841Z,62.70
2022-11-28T18:08:56.769Z,64.80
2022-11-28T18:09:27.703Z,62.00
2022-11-28T18:09:58.503Z,66.70
2022-11-28T18:10:29.344Z,60.10
2022-11-28T18:11:00.338Z,62.20
2022-11-28T18:11:31.303Z,63.20
2022-11-28T18:12:02.319Z,63.30
2022-11-28T18:12:33.343Z,62.90
2022-11-28T18:13:04.551Z,62.10
2022-11-28T18:13:35.530Z,58.50
2022-11-28T18:14:06.414Z,60.00
2022-11-28T18:14:39.766Z,61.20
2022-11-28T18:15:07.980Z,54.70
2022-11-28T18:15:39.022Z,57.50
2022-11-28T18:16:10.143Z,63.10
2022-11-28T18:16:41.090Z,64.30
2022-11-28T18:17:12.138Z,60.40
2022-11-28T18:17:42.978Z,66.30
2022-11-28T18:18:14.083Z,66.50
2022-11-28T18:18:44.924Z,67.60
2022-11-28T18:19:16.110Z,63.00
2022-11-28T18:19:47.052Z,62.90
2022-11-28T18:20:17.841Z,71.20
2022-11-28T18:20:48.636Z,68.50
2022-11-28T18:21:19.419Z,72.30
2022-11-28T18:21:50.201Z,72.50
2022-11-28T18:22:20.976Z,64.90
2022-11-28T18:22:51.749Z,63.20
2022-11-28T18:23:22.514Z,71.00
2022-11-28T18:23:53.272Z,67.60
2022-11-28T18:24:24.029Z,65.70
2022-11-28T18:24:54.784Z,62.40
2022-11-28T18:25:25.723Z,62.50
2022-11-28T18:25:56.589Z,67.60
2022-11-28T18:26:27.414Z,65.20
2022-11-28T18:26:58.243Z,67.30
2022-11-28T18:27:29.088Z,65.50
2022-11-28T18:27:59.979Z,73.40
2022-11-28T18:28:30.744Z,67.70
2022-11-28T18:29:01.570Z,65.20
2022-11-28T18:29:32.605Z,66.80
2022-11-28T18:30:03.437Z,65.40
2022-11-28T18:30:34.494Z,63.80
2022-11-28T18:31:05.338Z,63.90
2022-11-28T18:31:36.284Z,62.20
2022-11-28T18:32:07.305Z,67.30
2022-11-28T18:32:38.259Z,63.00
2022-11-28T18:33:09.192Z,61.90
2022-11-28T18:33:40.196Z,70.20
2022-11-28T18:34:11.255Z,68.70
2022-11-28T18:34:42.100Z,68.70
2022-11-28T18:35:13.001Z,73.90
2022-11-28T18:35:43.911Z,81.70
2022-11-28T18:36:14.887Z,67.60
2022-11-28T18:36:45.715Z,67.30
2022-11-28T18:37:16.526Z,103.90
2022-11-28T18:37:47.470Z,96.10
2022-11-28T18:38:18.658Z,106.50
2022-11-28T18:38:49.705Z,98.90
2022-11-28T18:39:20.576Z,98.80
2022-11-28T18:39:51.545Z,82.50
2022-11-28T18:40:22.431Z,81.60
2022-11-28T18:40:53.802Z,92.60
2022-11-28T18:41:24.643Z,111.20
2022-11-28T18:41:55.678Z,115.60
2022-11-28T18:42:26.493Z,104.00
2022-11-28T18:42:57.479Z,107.10
2022-11-28T18:43:28.337Z,103.20
2022-11-28T18:43:59.210Z,96.10
2022-11-28T18:44:30.090Z,144.00
2022-11-28T18:45:01.167Z,146.00
2022-11-28T18:45:31.999Z,83.70
2022-11-28T18:46:02.929Z,89.20
2022-11-28T18:46:33.736Z,86.00
2022-11-28T18:47:04.497Z,91.10
2022-11-28T18:47:35.309Z,82.70
2022-11-28T18:48:06.173Z,84.40
2022-11-28T18:48:36.947Z,94.90
2022-11-28T18:49:07.687Z,109.40
2022-11-28T18:49:38.461Z,97.00
2022-11-28T18:50:09.266Z,128.00
2022-11-28T18:50:40.498Z,106.30
2022-11-28T18:51:11.591Z,81.20
2022-11-28T18:51:42.815Z,91.40
2022-11-28T18:52:14.037Z,94.70
2022-11-28T18:52:45.109Z,85.10
2022-11-28T18:53:15.972Z,98.90
2022-11-28T18:53:46.849Z,111.10
2022-11-28T18:54:21.293Z,95.10
2022-11-28T18:54:49.526Z,86.70
2022-11-28T18:55:20.601Z,126.70
2022-11-28T18:55:51.637Z,139.00
2022-11-28T18:56:22.593Z,123.90
2022-11-28T18:56:53.738Z,92.70
2022-11-28T18:57:25.034Z,106.80
2022-11-28T18:57:55.901Z,123.00
2022-11-28T18:58:26.982Z,118.50
2022-11-28T18:58:57.909Z,134.20
2022-11-28T18:59:28.820Z,167.30
2022-11-28T19:00:00.290Z,158.00
2022-11-28T19:00:31.601Z,170.10
2022-11-28T19:01:02.484Z,138.80
2022-11-28T19:01:33.835Z,118.10
2022-11-28T19:02:04.860Z,108.20
2022-11-28T19:02:35.765Z,101.40
2022-11-28T19:03:06.927Z,112.40
2022-11-28T19:03:38.077Z,118.60
2022-11-28T19:04:08.890Z,159.10
2022-11-28T19:04:40.084Z,114.50
2022-11-28T19:05:11.402Z,81.50
2022-11-28T19:05:42.382Z,87.60
2022-11-28T19:06:13.238Z,91.20
2022-11-28T19:06:44.110Z,124.60
2022-11-28T19:07:15.015Z,153.60
2022-11-28T19:07:46.112Z,130.10
2022-11-28T19:08:17.068Z,114.80
2022-11-28T19:08:47.900Z,123.30
2022-11-28T19:09:18.767Z,114.30
2022-11-28T19:09:49.691Z,120.40
2022-11-28T19:10:20.687Z,103.80
2022-11-28T19:10:51.735Z,86.80
2022-11-28T19:11:22.771Z,81.80
2022-11-28T19:11:53.731Z,80.00
2022-11-28T19:12:24.637Z,81.20
2022-11-28T19:12:55.556Z,82.50
2022-11-28T19:13:27.154Z,81.40
2022-11-28T19:13:58.091Z,75.50
2022-11-28T19:14:29.074Z,75.90
2022-11-28T19:15:02.504Z,73.90
2022-11-28T19:15:30.783Z,71.10
2022-11-28T19:16:01.745Z,72.40
2022-11-28T19:16:32.630Z,82.60
2022-11-28T19:17:03.604Z,74.60
2022-11-28T19:17:34.395Z,74.70
2022-11-28T19:18:05.441Z,67.80
2022-11-28T19:18:36.568Z,71.80
2022-11-28T19:19:07.531Z,75.10
2022-11-28T19:19:38.741Z,72.30
2022-11-28T19:20:09.522Z,76.00
2022-11-28T19:20:40.359Z,70.80
2022-11-28T19:21:11.315Z,79.80
2022-11-28T19:21:42.324Z,88.60
2022-11-28T19:22:13.325Z,88.10
2022-11-28T19:22:44.148Z,79.50
2022-11-28T19:23:15.039Z,76.50
2022-11-28T19:23:46.131Z,77.90
2022-11-28T19:24:17.159Z,72.00
2022-11-28T19:24:48.137Z,69.70
2022-11-28T19:25:19.062Z,73.10
2022-11-28T19:25:49.949Z,74.40
2022-11-28T19:26:20.745Z,76.60
2022-11-28T19:26:51.776Z,80.60
2022-11-28T19:27:22.897Z,75.70
2022-11-28T19:27:53.804Z,72.80
2022-11-28T19:28:24.819Z,75.50
2022-11-28T19:28:55.923Z,64.30
2022-11-28T19:29:26.752Z,73.00
2022-11-28T19:29:57.777Z,78.00
2022-11-28T19:30:28.590Z,75.90
2022-11-28T19:30:59.486Z,70.80
2022-11-28T19:31:30.341Z,73.70
2022-11-28T19:32:01.229Z,65.40
2022-11-28T19:32:32.190Z,71.90
2022-11-28T19:33:03.166Z,70.90
2022-11-28T19:33:34.027Z,74.90
2022-11-28T19:34:05.282Z,75.80
2022-11-28T19:34:36.186Z,78.30
2022-11-28T19:35:07.307Z,76.10
2022-11-28T19:35:38.304Z,82.80
2022-11-28T19:36:09.525Z,74.40
2022-11-28T19:36:40.661Z,85.70
2022-11-28T19:37:11.593Z,80.00
2022-11-28T19:37:42.731Z,79.90
2022-11-28T19:38:13.714Z,84.70
2022-11-28T19:38:44.750Z,82.70
2022-11-28T19:39:15.631Z,80.80
2022-11-28T19:39:46.575Z,79.30
2022-11-28T19:40:17.425Z,83.20
2022-11-28T19:40:48.415Z,72.80
2022-11-28T19:41:19.532Z,77.70
2022-11-28T19:41:50.671Z,75.90
2022-11-28T19:42:21.581Z,75.90
2022-11-28T19:42:52.499Z,83.40
2022-11-28T19:43:23.413Z,81.70
2022-11-28T19:43:54.374Z,79.50
2022-11-28T19:44:25.581Z,79.40
2022-11-28T19:44:56.639Z,77.70
2022-11-28T19:45:27.498Z,90.80
2022-11-28T19:45:58.462Z,85.30
2022-11-28T19:46:35.144Z,80.70
2022-11-28T19:47:02.419Z,89.70
2022-11-28T19:47:33.260Z,86.00
2022-11-28T19:48:05.125Z,94.20
2022-11-28T19:48:36.199Z,80.30
2022-11-28T19:49:07.516Z,83.50
2022-11-28T19:49:38.494Z,86.80
2022-11-28T19:50:09.530Z,83.10
2022-11-28T19:50:40.475Z,77.80
2022-11-28T19:51:11.682Z,84.30
2022-11-28T19:51:42.656Z,81.20
2022-11-28T19:52:13.682Z,80.30
2022-11-28T19:52:44.746Z,83.40
2022-11-28T19:53:16.026Z,83.30
2022-11-28T19:53:47.107Z,85.50
2022-11-28T19:54:17.973Z,85.50
2022-11-28T19:54:49.041Z,77.60
2022-11-28T19:55:20.131Z,91.70
2022-11-28T19:55:51.067Z,83.70
2022-11-28T19:56:22.256Z,79.60
2022-11-28T19:56:53.904Z,81.00
2022-11-28T19:57:24.732Z,83.10
2022-11-28T19:57:55.664Z,83.50
2022-11-28T19:58:26.631Z,74.60
2022-11-28T19:58:57.589Z,80.80
2022-11-28T19:59:28.382Z,84.10
2022-11-28T19:59:59.315Z,83.40
2022-11-28T20:00:30.105Z,84.70
2022-11-28T20:01:02.151Z,83.60
2022-11-28T20:01:33.298Z,88.20
2022-11-28T20:02:04.205Z,83.90
2022-11-28T20:02:35.141Z,85.40
2022-11-28T20:03:06.057Z,82.50
2022-11-28T20:03:37.340Z,88.60
2022-11-28T20:04:08.384Z,79.10
2022-11-28T20:04:39.310Z,93.00
2022-11-28T20:05:10.252Z,89.90
2022-11-28T20:05:41.430Z,86.40
2022-11-28T20:06:12.562Z,91.80
2022-11-28T20:06:43.558Z,90.70
2022-11-28T20:07:14.734Z,87.40
2022-11-28T20:07:45.639Z,89.30
2022-11-28T20:08:16.892Z,86.00
2022-11-28T20:08:47.794Z,90.40
2022-11-28T20:09:18.697Z,101.90
2022-11-28T20:09:49.510Z,101.90
2022-11-28T20:10:20.373Z,97.60
2022-11-28T20:10:51.376Z,106.50